createdAt,value
2023-03-27T00:00:13.488Z,101763.19
2023-03-27T00:02:41.733Z,101782.22
2023-03-27T00:05:11.539Z,101760.63
2023-03-27T00:07:47.165Z,101752.22
2023-03-27T00:10:15.957Z,101781.28
2023-03-27T00:12:44.520Z,101807.03
2023-03-27T00:15:17.325Z,101817.75
2023-03-27T00:17:48.662Z,101805.81
2023-03-27T00:20:18.844Z,101775.72
2023-03-27T00:22:45.950Z,101815.66
2023-03-27T00:25:13.941Z,101835.72
2023-03-27T00:27:43.460Z,101832.84
2023-03-27T00:30:11.283Z,101820.94
2023-03-27T00:32:40.345Z,101832.75
2023-03-27T00:35:10.462Z,101821.34
2023-03-27T00:37:44.677Z,101874.97
2023-03-27T00:40:19.223Z,101865.94
2023-03-27T00:42:52.097Z,101863.28
2023-03-27T00:45:24.585Z,101853.91
2023-03-27T00:47:55.197Z,101836.59
2023-03-27T00:50:30.536Z,101873.63
2023-03-27T00:53:05.245Z,101883.06
2023-03-27T00:55:37.325Z,101876.13
2023-03-27T00:58:10.014Z,101891.56
2023-03-27T01:00:38.812Z,101882.06
2023-03-27T01:03:12.017Z,101877.50
2023-03-27T01:05:38.731Z,101885.38
2023-03-27T01:08:06.516Z,101897.41
2023-03-27T01:11:18.081Z,101876.03
2023-03-27T01:14:21.299Z,101907.13
2023-03-27T01:17:13.950Z,101903.63
2023-03-27T01:20:04.040Z,101908.97
2023-03-27T01:23:08.882Z,101901.13
2023-03-27T01:25:40.997Z,101897.59
2023-03-27T01:28:11.189Z,101903.06
2023-03-27T01:31:01.472Z,101915.22
2023-03-27T01:33:58.255Z,101899.91
2023-03-27T01:36:57.997Z,101911.06
2023-03-27T01:39:46.497Z,101896.53
2023-03-27T01:42:21.973Z,101915.47
2023-03-27T01:45:10.134Z,101907.03
2023-03-27T01:47:47.515Z,101921.66
2023-03-27T01:50:23.910Z,101925.41
2023-03-27T01:53:02.512Z,101884.84
2023-03-27T01:55:37.162Z,101916.72
2023-03-27T01:58:14.531Z,101886.91
2023-03-27T02:00:51.958Z,101929.22
2023-03-27T02:03:26.987Z,101923.34
2023-03-27T02:06:00.231Z,101937.88
2023-03-27T02:08:33.428Z,101934.38
2023-03-27T02:11:00.668Z,101941.75
2023-03-27T02:13:51.678Z,101948.78
2023-03-27T02:16:23.432Z,101953.09
2023-03-27T02:18:56.732Z,101956.69
2023-03-27T02:21:24.001Z,101949.78
2023-03-27T02:23:51.831Z,101945.38
2023-03-27T02:26:31.509Z,101971.56
2023-03-27T02:29:07.417Z,101963.53
2023-03-27T02:31:58.276Z,101954.00
2023-03-27T02:34:58.997Z,101977.63
2023-03-27T02:37:49.874Z,101955.84
2023-03-27T02:40:51.613Z,101975.72
2023-03-27T02:43:57.061Z,101967.19
2023-03-27T02:47:06.937Z,101975.09
2023-03-27T02:49:39.320Z,101961.41
2023-03-27T02:52:21.897Z,101980.44
2023-03-27T02:54:56.902Z,101991.06
2023-03-27T02:57:28.016Z,101989.28
2023-03-27T03:00:00.556Z,101988.41
2023-03-27T03:02:32.632Z,101982.47
2023-03-27T03:05:10.515Z,102001.41
2023-03-27T03:07:41.769Z,102002.50
2023-03-27T03:10:11.724Z,102002.59
2023-03-27T03:12:42.557Z,101979.25
2023-03-27T03:15:09.606Z,101994.06
2023-03-27T03:17:36.583Z,101971.69
2023-03-27T03:20:05.925Z,102016.66
2023-03-27T03:22:32.847Z,102027.78
2023-03-27T03:25:06.041Z,102033.94
2023-03-27T03:27:34.171Z,102038.31
2023-03-27T03:30:07.021Z,102023.69
2023-03-27T03:32:34.113Z,102023.66
2023-03-27T03:35:03.192Z,102025.25
2023-03-27T03:37:38.795Z,102036.69
2023-03-27T03:40:12.224Z,102001.91
2023-03-27T03:42:52.396Z,102028.00
2023-03-27T03:45:21.543Z,102027.94
2023-03-27T03:47:51.432Z,102016.66
2023-03-27T03:50:18.233Z,102055.84
2023-03-27T03:52:45.702Z,102063.06
2023-03-27T03:55:21.242Z,102024.47
2023-03-27T03:57:47.960Z,102059.91
2023-03-27T04:00:17.959Z,102083.56
2023-03-27T04:02:48.742Z,102089.09
2023-03-27T04:05:16.140Z,102055.75
2023-03-27T04:07:42.808Z,102111.38
2023-03-27T04:10:10.135Z,102100.25
2023-03-27T04:12:40.205Z,102091.63
2023-03-27T04:15:07.401Z,102057.78
2023-03-27T04:17:34.304Z,102060.44
2023-03-27T04:20:02.604Z,102079.25
2023-03-27T04:22:39.870Z,102043.72
2023-03-27T04:25:11.442Z,102102.63
2023-03-27T04:27:38.254Z,102107.06
2023-03-27T04:30:08.757Z,102108.94
2023-03-27T04:32:40.881Z,102101.97
2023-03-27T04:35:13.142Z,102120.22
2023-03-27T04:37:41.750Z,102102.94
2023-03-27T04:40:08.851Z,102115.00
2023-03-27T04:42:44.980Z,102101.22
2023-03-27T04:45:15.054Z,102120.28
2023-03-27T04:47:42.770Z,102112.50
2023-03-27T04:50:12.168Z,102107.19
2023-03-27T04:52:39.302Z,102109.00
2023-03-27T04:55:06.947Z,102079.59
2023-03-27T04:57:35.402Z,102114.13
2023-03-27T05:00:15.809Z,102076.94
2023-03-27T05:02:44.851Z,102099.41
2023-03-27T05:05:17.121Z,102120.97
2023-03-27T05:07:48.761Z,102097.72
2023-03-27T05:10:17.485Z,102109.03
2023-03-27T05:12:52.385Z,102133.34
2023-03-27T05:15:21.122Z,102136.97
2023-03-27T05:17:54.387Z,102134.28
2023-03-27T05:20:22.354Z,102124.84
2023-03-27T05:22:53.603Z,102137.81
2023-03-27T05:25:21.591Z,102133.50
2023-03-27T05:27:49.841Z,102127.38
2023-03-27T05:30:21.003Z,102140.34
2023-03-27T05:32:49.702Z,102137.66
2023-03-27T05:35:18.213Z,102157.44
2023-03-27T05:37:50.086Z,102153.97
2023-03-27T05:40:22.669Z,102157.31
2023-03-27T05:42:50.442Z,102165.91
2023-03-27T05:45:17.894Z,102145.84
2023-03-27T05:47:51.208Z,102161.28
2023-03-27T05:50:20.265Z,102149.22
2023-03-27T05:52:56.214Z,102179.75
2023-03-27T05:55:23.728Z,102159.75
2023-03-27T05:57:51.285Z,102180.72
2023-03-27T06:00:22.844Z,102146.06
2023-03-27T06:02:53.702Z,102145.28
2023-03-27T06:05:22.162Z,102152.25
2023-03-27T06:07:51.390Z,102157.38
2023-03-27T06:10:22.824Z,102183.22
2023-03-27T06:13:00.332Z,102166.75
2023-03-27T06:15:28.690Z,102160.53
2023-03-27T06:17:56.018Z,102177.72
2023-03-27T06:20:24.362Z,102174.28
2023-03-27T06:22:55.510Z,102153.34
2023-03-27T06:25:27.168Z,102187.94
2023-03-27T06:27:55.940Z,102173.06
2023-03-27T06:30:29.372Z,102159.06
2023-03-27T06:32:58.597Z,102200.66
2023-03-27T06:35:28.963Z,102194.53
2023-03-27T06:37:57.947Z,102219.97
2023-03-27T06:40:27.778Z,102233.19
2023-03-27T06:43:00.940Z,102249.81
2023-03-27T06:45:49.401Z,102242.03
2023-03-27T06:48:22.113Z,102254.38
2023-03-27T06:50:51.743Z,102243.97
2023-03-27T06:53:27.160Z,102238.81
2023-03-27T06:55:56.861Z,102243.91
2023-03-27T06:58:25.547Z,102249.13
2023-03-27T07:00:53.620Z,102229.06
2023-03-27T07:03:23.180Z,102253.38
2023-03-27T07:05:50.824Z,102237.78
2023-03-27T07:08:24.022Z,102255.97
2023-03-27T07:11:07.998Z,102271.56
2023-03-27T07:13:37.568Z,102268.00
2023-03-27T07:16:07.928Z,102281.06
2023-03-27T07:18:34.605Z,102280.88
2023-03-27T07:21:05.602Z,102285.03
2023-03-27T07:23:35.711Z,102306.94
2023-03-27T07:26:09.915Z,102303.50
2023-03-27T07:28:38.499Z,102275.03
2023-03-27T07:31:29.279Z,102306.16
2023-03-27T07:33:59.656Z,102342.81
2023-03-27T07:36:29.157Z,102300.22
2023-03-27T07:38:57.380Z,102279.47
2023-03-27T07:41:24.186Z,102304.69
2023-03-27T07:43:52.476Z,102323.56
2023-03-27T07:46:19.485Z,102318.38
2023-03-27T07:48:46.157Z,102326.91
2023-03-27T07:51:14.400Z,102340.06
2023-03-27T07:53:43.629Z,102339.13
2023-03-27T07:56:13.934Z,102327.09
2023-03-27T07:58:40.927Z,102339.06
2023-03-27T08:01:07.871Z,102331.94
2023-03-27T08:03:35.940Z,102331.03
2023-03-27T08:06:07.008Z,102324.13
2023-03-27T08:08:35.905Z,102318.88
2023-03-27T08:11:13.515Z,102341.28
2023-03-27T08:13:46.992Z,102353.28
2023-03-27T08:16:17.254Z,102307.50
2023-03-27T08:18:49.740Z,102311.81
2023-03-27T08:21:20.439Z,102366.38
2023-03-27T08:23:57.888Z,102316.03
2023-03-27T08:26:26.558Z,102350.63
2023-03-27T08:28:57.062Z,102305.44
2023-03-27T08:31:25.845Z,102323.50
2023-03-27T08:33:52.805Z,102346.00
2023-03-27T08:36:20.108Z,102340.59
2023-03-27T08:38:56.284Z,102359.41
2023-03-27T08:41:32.020Z,102357.63
2023-03-27T08:44:03.831Z,102445.28
2023-03-27T08:46:41.491Z,102435.19
2023-03-27T08:49:17.487Z,102399.72
2023-03-27T08:52:02.398Z,102392.66
2023-03-27T08:54:39.990Z,102427.41
2023-03-27T08:57:19.117Z,102428.28
2023-03-27T08:59:47.321Z,102411.75
2023-03-27T09:02:25.508Z,102430.81
2023-03-27T09:05:13.397Z,102396.00
2023-03-27T09:07:58.623Z,102436.69
2023-03-27T09:10:31.372Z,102433.78
2023-03-27T09:13:08.730Z,102451.00
2023-03-27T09:15:42.327Z,102390.97
2023-03-27T09:18:20.815Z,102446.53
2023-03-27T09:20:55.250Z,102414.31
2023-03-27T09:23:54.133Z,102435.91
2023-03-27T09:26:37.489Z,102404.44
2023-03-27T09:29:28.791Z,102404.97
2023-03-27T09:31:59.183Z,102416.41
2023-03-27T09:34:32.780Z,102383.16
2023-03-27T09:37:09.173Z,102381.00
2023-03-27T09:39:42.015Z,102414.44
2023-03-27T09:42:17.774Z,102415.78
2023-03-27T09:44:50.459Z,102419.06
2023-03-27T09:47:31.163Z,102406.22
2023-03-27T09:50:28.497Z,102428.28
2023-03-27T09:53:13.762Z,102437.22
2023-03-27T09:56:01.076Z,102435.94
2023-03-27T09:58:35.571Z,102433.56
2023-03-27T10:01:17.059Z,102449.22
2023-03-27T10:03:52.059Z,102433.41
2023-03-27T10:06:33.250Z,102434.88
2023-03-27T10:09:07.672Z,102441.56
2023-03-27T10:11:36.644Z,102444.66
2023-03-27T10:14:16.909Z,102445.47
2023-03-27T10:16:46.429Z,102440.34
2023-03-27T10:19:25.477Z,102434.75
2023-03-27T10:21:53.608Z,102419.09
2023-03-27T10:24:36.027Z,102451.47
2023-03-27T10:27:19.426Z,102452.34
2023-03-27T10:29:46.895Z,102468.78
2023-03-27T10:32:14.086Z,102458.53
2023-03-27T10:34:59.201Z,102426.09
2023-03-27T10:37:32.194Z,102474.03
2023-03-27T10:40:04.024Z,102455.44
2023-03-27T10:42:32.746Z,102451.84
2023-03-27T10:45:04.402Z,102464.41
2023-03-27T10:47:35.049Z,102487.38
2023-03-27T10:50:18.824Z,102495.47
2023-03-27T10:53:05.988Z,102531.78
2023-03-27T10:56:10.755Z,102539.13
2023-03-27T10:59:02.467Z,102522.97
2023-03-27T11:01:46.877Z,102519.34
2023-03-27T11:04:52.565Z,102490.59
2023-03-27T11:07:33.939Z,102498.31
2023-03-27T11:10:21.710Z,102511.19
2023-03-27T11:13:12.132Z,102517.75
2023-03-27T11:15:51.165Z,102501.69
2023-03-27T11:18:27.876Z,102500.50
2023-03-27T11:21:19.687Z,102480.03
2023-03-27T11:24:00.353Z,102464.91
2023-03-27T11:26:44.292Z,102469.56
2023-03-27T11:29:20.593Z,102494.81
2023-03-27T11:31:52.401Z,102492.88
2023-03-27T11:34:33.690Z,102514.53
2023-03-27T11:37:22.214Z,102541.09
2023-03-27T11:40:13.410Z,102553.84
2023-03-27T11:42:47.788Z,102585.16
2023-03-27T11:45:21.445Z,102607.13
2023-03-27T11:48:38.861Z,102606.94
2023-03-27T11:51:15.666Z,102620.56
2023-03-27T11:54:05.832Z,102627.66
2023-03-27T11:56:54.637Z,102646.25
2023-03-27T12:00:08.266Z,102625.44
2023-03-27T12:02:59.409Z,102614.75
2023-03-27T12:05:59.491Z,102610.13
2023-03-27T12:08:46.031Z,102576.09
2023-03-27T12:11:16.928Z,102593.25
2023-03-27T12:13:47.776Z,102592.22
2023-03-27T12:16:32.630Z,102595.66
2023-03-27T12:19:28.966Z,102598.16
2023-03-27T12:22:38.161Z,102591.03
2023-03-27T12:25:24.119Z,102581.44
2023-03-27T12:28:02.969Z,102591.63
2023-03-27T12:30:56.816Z,102599.22
2023-03-27T12:33:42.025Z,102592.00
2023-03-27T12:36:13.383Z,102595.13
2023-03-27T12:38:42.937Z,102593.78
2023-03-27T12:41:13.083Z,102608.63
2023-03-27T12:43:47.427Z,102599.03
2023-03-27T12:46:20.322Z,102586.00
2023-03-27T12:49:08.003Z,102603.31
2023-03-27T12:51:51.315Z,102604.38
2023-03-27T12:54:30.888Z,102599.16
2023-03-27T12:57:22.003Z,102590.09
2023-03-27T12:59:49.081Z,102599.41
2023-03-27T13:02:18.782Z,102602.75
2023-03-27T13:05:26.902Z,102593.09
2023-03-27T13:08:28.781Z,102587.56
2023-03-27T13:11:19.973Z,102580.53
2023-03-27T13:14:20.468Z,102580.16
2023-03-27T13:17:16.015Z,102585.13
2023-03-27T13:20:12.203Z,102579.53
2023-03-27T13:22:59.866Z,102577.13
2023-03-27T13:25:39.909Z,102573.31
2023-03-27T13:28:29.685Z,102578.44
2023-03-27T13:30:58.537Z,102586.81
2023-03-27T13:33:35.962Z,102583.56
2023-03-27T13:36:11.127Z,102591.59
2023-03-27T13:39:08.992Z,102588.28
2023-03-27T13:41:44.624Z,102602.38
2023-03-27T13:44:30.177Z,102606.56
2023-03-27T13:47:15.744Z,102586.44
2023-03-27T13:50:21.113Z,102592.34
2023-03-27T13:53:10.519Z,102599.97
2023-03-27T13:56:05.148Z,102592.69
2023-03-27T13:58:43.897Z,102616.06
2023-03-27T14:01:34.344Z,102605.84
2023-03-27T14:04:30.357Z,102627.53
2023-03-27T14:07:08.947Z,102598.06
2023-03-27T14:10:00.695Z,102608.16
2023-03-27T14:12:38.763Z,102605.72
2023-03-27T14:15:12.736Z,102613.13
2023-03-27T14:17:45.064Z,102632.63
2023-03-27T14:20:22.740Z,102623.97
2023-03-27T14:22:57.082Z,102609.56
2023-03-27T14:25:30.453Z,102612.78
2023-03-27T14:27:58.153Z,102595.38
2023-03-27T14:30:33.657Z,102612.22
2023-03-27T14:33:08.099Z,102608.09
2023-03-27T14:35:42.168Z,102596.44
2023-03-27T14:38:24.895Z,102622.47
2023-03-27T14:41:00.056Z,102638.88
2023-03-27T14:43:31.698Z,102603.13
2023-03-27T14:46:09.756Z,102595.59
2023-03-27T14:48:40.011Z,102613.13
2023-03-27T14:51:13.967Z,102611.38
2023-03-27T14:53:45.859Z,102643.50
2023-03-27T14:56:31.460Z,102615.00
2023-03-27T14:59:07.359Z,102612.88
2023-03-27T15:01:36.243Z,102650.09
2023-03-27T15:04:07.474Z,102652.09
2023-03-27T15:06:36.800Z,102612.34
2023-03-27T15:09:18.496Z,102653.63
2023-03-27T15:11:49.694Z,102654.38
2023-03-27T15:14:21.931Z,102636.38
2023-03-27T15:16:59.807Z,102639.97
2023-03-27T15:19:31.119Z,102624.63
2023-03-27T15:22:11.573Z,102664.56
2023-03-27T15:24:44.527Z,102646.44
2023-03-27T15:27:21.880Z,102657.88
2023-03-27T15:30:01.522Z,102661.25
2023-03-27T15:32:42.523Z,102674.38
2023-03-27T15:35:13.892Z,102676.66
2023-03-27T15:37:43.191Z,102666.50
2023-03-27T15:40:32.958Z,102678.97
2023-03-27T15:43:14.813Z,102675.63
2023-03-27T15:45:43.182Z,102679.13
2023-03-27T15:48:17.691Z,102672.03
2023-03-27T15:50:58.202Z,102683.72
2023-03-27T15:53:42.445Z,102681.63
2023-03-27T15:56:37.180Z,102694.72
2023-03-27T15:59:16.100Z,102702.78
2023-03-27T16:01:52.755Z,102689.31
2023-03-27T16:04:28.214Z,102690.41
2023-03-27T16:07:06.336Z,102709.31
2023-03-27T16:09:47.044Z,102701.00
2023-03-27T16:12:15.437Z,102714.09
2023-03-27T16:14:48.263Z,102722.25
2023-03-27T16:17:16.010Z,102732.47
2023-03-27T16:20:05.951Z,102743.31
2023-03-27T16:22:38.240Z,102730.81
2023-03-27T16:28:53.286Z,102737.91
2023-03-27T16:31:22.687Z,102740.53
2023-03-27T16:33:50.723Z,102736.97
2023-03-27T16:36:29.933Z,102747.34
2023-03-27T16:38:59.467Z,102744.88
2023-03-27T16:41:29.350Z,102744.88
2023-03-27T16:43:56.139Z,102738.66
2023-03-27T16:46:27.094Z,102690.03
2023-03-27T16:48:54.176Z,102739.53
2023-03-27T16:51:24.506Z,102705.81
2023-03-27T16:53:53.081Z,102729.31
2023-03-27T16:56:28.217Z,102745.69
2023-03-27T16:59:02.846Z,102697.03
2023-03-27T17:01:33.581Z,102735.19
2023-03-27T17:04:00.720Z,102736.03
2023-03-27T17:06:27.396Z,102745.75
2023-03-27T17:08:55.858Z,102744.91
2023-03-27T17:11:26.307Z,102753.66
2023-03-27T17:13:53.287Z,102751.06
2023-03-27T17:16:20.323Z,102738.09
2023-03-27T17:18:50.280Z,102716.44
2023-03-27T17:21:16.898Z,102726.13
2023-03-27T17:23:43.747Z,102762.69
2023-03-27T17:26:16.068Z,102752.25
2023-03-27T17:28:43.023Z,102789.72
2023-03-27T17:31:09.734Z,102783.69
2023-03-27T17:33:36.606Z,102782.84
2023-03-27T17:36:08.683Z,102782.88
2023-03-27T17:38:36.816Z,102789.97
2023-03-27T17:41:04.272Z,102798.78
2023-03-27T17:43:31.199Z,102801.50
2023-03-27T17:45:59.233Z,102776.34
2023-03-27T17:48:26.075Z,102799.03
2023-03-27T17:51:07.586Z,102796.47
2023-03-27T17:53:41.496Z,102797.38
2023-03-27T17:56:10.764Z,102794.75
2023-03-27T17:58:38.334Z,102790.50
2023-03-27T18:01:17.659Z,102787.88
2023-03-27T18:03:45.210Z,102795.63
2023-03-27T18:06:12.102Z,102798.31
2023-03-27T18:08:41.025Z,102800.88
2023-03-27T18:11:13.079Z,102814.13
2023-03-27T18:13:42.664Z,102808.00
2023-03-27T18:16:11.018Z,102823.66
2023-03-27T18:18:39.115Z,102821.09
2023-03-27T18:21:06.789Z,102828.13
2023-03-27T18:23:35.047Z,102828.06
2023-03-27T18:26:08.818Z,102843.13
2023-03-27T18:28:35.895Z,102835.47
2023-03-27T18:31:11.957Z,102839.97
2023-03-27T18:33:41.837Z,102842.59
2023-03-27T18:36:12.450Z,102840.06
2023-03-27T18:38:40.668Z,102838.31
2023-03-27T18:41:08.500Z,102840.06
2023-03-27T18:46:17.298Z,102840.91
2023-03-27T18:48:45.534Z,102840.09
2023-03-27T18:51:12.665Z,102841.78
2023-03-27T18:53:41.120Z,102840.88
2023-03-27T18:56:08.202Z,102849.66
2023-03-27T18:58:35.788Z,102835.72
2023-03-27T19:01:05.306Z,102842.69
2023-03-27T19:03:34.770Z,102843.50
2023-03-27T19:06:07.343Z,102848.72
2023-03-27T19:08:37.743Z,102813.94
2023-03-27T19:11:09.793Z,102826.16
2023-03-27T19:13:38.989Z,102831.31
2023-03-27T19:16:14.332Z,102845.25
2023-03-27T19:18:43.275Z,102851.28
2023-03-27T19:21:09.978Z,102847.75
2023-03-27T19:23:51.500Z,102858.28
2023-03-27T19:26:19.778Z,102839.16
2023-03-27T19:28:50.679Z,102839.97
2023-03-27T19:31:19.728Z,102828.78
2023-03-27T19:33:50.356Z,102851.44
2023-03-27T19:36:18.572Z,102853.25
2023-03-27T19:38:45.694Z,102835.81
2023-03-27T19:41:12.593Z,102843.66
2023-03-27T19:43:39.506Z,102853.28
2023-03-27T19:46:15.659Z,102852.41
2023-03-27T19:48:50.412Z,102857.63
2023-03-27T19:51:53.543Z,102842.84
2023-03-27T19:54:56.722Z,102824.53
2023-03-27T19:57:30.097Z,102828.06
2023-03-27T20:00:06.400Z,102800.16
2023-03-27T20:02:42.296Z,102833.28
2023-03-27T20:05:29.728Z,102813.19
2023-03-27T20:08:01.529Z,102788.75
2023-03-27T20:10:35.019Z,102774.75
2023-03-27T20:13:05.175Z,102786.13
2023-03-27T20:15:36.885Z,102778.28
2023-03-27T20:18:07.400Z,102763.56
2023-03-27T20:20:37.921Z,102781.84
2023-03-27T20:23:19.398Z,102799.28
2023-03-27T20:25:51.706Z,102801.03
2023-03-27T20:28:18.704Z,102788.88
2023-03-27T20:30:46.770Z,102807.22
2023-03-27T20:33:16.572Z,102787.19
2023-03-27T20:35:47.838Z,102833.34
2023-03-27T20:38:17.445Z,102862.09
2023-03-27T20:40:53.797Z,102820.25
2023-03-27T20:43:23.488Z,102825.44
2023-03-27T20:45:57.611Z,102798.50
2023-03-27T20:48:25.300Z,102821.19
2023-03-27T20:51:05.552Z,102800.28
2023-03-27T20:53:40.125Z,102804.59
2023-03-27T20:56:12.521Z,102811.56
2023-03-27T20:58:45.651Z,102865.56
2023-03-27T21:01:13.192Z,102794.16
2023-03-27T21:03:51.128Z,102826.38
2023-03-27T21:06:20.600Z,102811.59
2023-03-27T21:08:49.408Z,102782.88
2023-03-27T21:11:18.166Z,102788.09
2023-03-27T21:13:47.618Z,102801.19
2023-03-27T21:16:18.501Z,102810.72
2023-03-27T21:18:50.996Z,102811.63
2023-03-27T21:21:22.902Z,102805.53
2023-03-27T21:23:59.363Z,102801.13
2023-03-27T21:26:39.338Z,102809.03
2023-03-27T21:29:13.287Z,102817.69
2023-03-27T21:31:47.201Z,102801.19
2023-03-27T21:34:21.208Z,102836.84
2023-03-27T21:36:57.471Z,102828.16
2023-03-27T21:39:24.355Z,102801.16
2023-03-27T21:41:51.520Z,102795.03
2023-03-27T21:44:24.637Z,102814.25
2023-03-27T21:46:54.553Z,102806.41
2023-03-27T21:49:21.780Z,102814.25
2023-03-27T21:51:48.979Z,102834.25
2023-03-27T21:54:16.010Z,102818.56
2023-03-27T21:56:43.245Z,102832.50
2023-03-27T21:59:15.948Z,102820.28
2023-03-27T22:01:43.174Z,102827.28
2023-03-27T22:04:10.473Z,102830.72
2023-03-27T22:06:37.468Z,102835.03
2023-03-27T22:09:04.674Z,102878.66
2023-03-27T22:11:33.539Z,102826.41
2023-03-27T22:14:03.597Z,102850.75
2023-03-27T22:16:43.653Z,102856.88
2023-03-27T22:19:16.054Z,102855.09
2023-03-27T22:21:43.144Z,102841.22
2023-03-27T22:24:14.450Z,102829.03
2023-03-27T22:26:46.709Z,102821.19
2023-03-27T22:29:13.939Z,102868.25
2023-03-27T22:31:43.178Z,102896.13
2023-03-27T22:34:13.193Z,102857.81
2023-03-27T22:36:43.471Z,102826.44
2023-03-27T22:39:10.663Z,102823.91
2023-03-27T22:41:37.744Z,102838.72
2023-03-27T22:44:06.458Z,102886.63
2023-03-27T22:46:41.213Z,102912.81
2023-03-27T22:49:08.436Z,102857.03
2023-03-27T22:51:40.884Z,102839.59
2023-03-27T22:54:18.695Z,102842.22
2023-03-27T22:57:28.273Z,102871.00
2023-03-27T22:59:55.457Z,102877.94
2023-03-27T23:02:28.398Z,102882.34
2023-03-27T23:04:59.257Z,102834.38
2023-03-27T23:07:32.037Z,102865.75
2023-03-27T23:10:08.850Z,102857.91
2023-03-27T23:12:38.549Z,102872.72
2023-03-27T23:15:14.114Z,102866.63
2023-03-27T23:17:43.995Z,102864.03
2023-03-27T23:20:16.806Z,102921.53
2023-03-27T23:22:49.589Z,102911.97
2023-03-27T23:25:19.010Z,102877.97
2023-03-27T23:27:46.070Z,102881.50
2023-03-27T23:30:17.455Z,102878.84
2023-03-27T23:32:55.154Z,102933.78
2023-03-27T23:35:22.177Z,102858.81
2023-03-27T23:37:57.712Z,102918.03
2023-03-27T23:40:33.465Z,102918.91
2023-03-27T23:43:10.511Z,102863.13
2023-03-27T23:45:46.930Z,102863.13
2023-03-27T23:48:16.123Z,102864.03
2023-03-27T23:50:46.261Z,102849.25
2023-03-27T23:53:25.837Z,102913.75
2023-03-27T23:55:59.311Z,102855.38
2023-03-27T23:58:39.298Z,102885.06
